Anchorage, Alaska
Current Conditions -  °F | °C
As of 8:53 PM on Friday 24 Oct 2014 (Local Time) from PANC Reporting Station
Light Snow Light Snow  
Wind Chill: 30°   Ceiling: 7000
Heat Index: 34°   Visibility: 9mi
Dew Point: 25°   Wind: 5mph
Humidity: 70%   Direction: 20°NNE
Pressure: 29.88"   Gusts: NA
Location:  61.16°N, 150.01°W
Report Text: PANC 250453Z 02004KT 9SM -SN SCT050 BKN070 OVC160 01/M04 A2988 RMK AO2 SNB11 SLP121 P0000 T00111039
Loading
Personal Weather Stations






























Interactive Weather Map
Tropical Storm Tracking
New forecast layout! Learn more

10-Day Weather Forecast

Advertisements
Track Severe Weather on mobile